createdAt,value
2022-11-10T00:02:37.504Z,22.13
2022-11-10T00:06:41.682Z,18.60
2022-11-10T00:11:01.473Z,24.50
2022-11-10T00:15:24.411Z,19.63
2022-11-10T00:19:27.774Z,19.33
2022-11-10T00:23:36.412Z,18.17
2022-11-10T00:27:39.980Z,19.40
2022-11-10T00:31:45.351Z,15.97
2022-11-10T00:35:48.622Z,18.73
2022-11-10T00:39:51.978Z,19.73
2022-11-10T00:43:55.190Z,19.20
2022-11-10T00:47:59.885Z,18.80
2022-11-10T00:52:03.182Z,22.93
2022-11-10T00:56:06.762Z,18.50
2022-11-10T01:00:11.340Z,17.67
2022-11-10T01:04:16.022Z,20.87
2022-11-10T01:08:19.280Z,18.60
2022-11-10T01:12:23.747Z,21.47
2022-11-10T01:16:29.039Z,21.53
2022-11-10T01:20:34.992Z,19.13
2022-11-10T01:24:38.283Z,22.07
2022-11-10T01:28:41.742Z,18.23
2022-11-10T01:32:53.428Z,16.13
2022-11-10T01:36:58.122Z,19.10
2022-11-10T01:41:01.653Z,21.00
2022-11-10T01:45:38.427Z,19.60
2022-11-10T01:49:41.712Z,20.50
2022-11-10T01:53:50.786Z,28.00
2022-11-10T01:57:54.735Z,18.70
2022-11-10T02:02:07.931Z,16.97
2022-11-10T02:06:12.264Z,25.40
2022-11-10T02:10:18.751Z,20.10
2022-11-10T02:14:22.058Z,23.90
2022-11-10T02:18:25.393Z,20.33
2022-11-10T02:22:30.232Z,29.87
2022-11-10T02:26:34.107Z,22.10
2022-11-10T02:30:37.412Z,22.70
2022-11-10T02:34:42.862Z,20.20
2022-11-10T02:38:47.489Z,25.57
2022-11-10T02:42:50.847Z,29.23
2022-11-10T02:46:54.117Z,29.13
2022-11-10T02:50:57.401Z,24.37
2022-11-10T02:55:02.227Z,22.97
2022-11-10T02:59:05.719Z,42.97
2022-11-10T03:03:09.052Z,24.77
2022-11-10T03:07:12.370Z,21.73
2022-11-10T03:11:17.117Z,22.23
2022-11-10T03:15:20.480Z,21.67
2022-11-10T03:19:23.882Z,18.30
2022-11-10T03:23:27.317Z,19.83
2022-11-10T03:27:32.048Z,23.07
2022-11-10T03:31:35.335Z,19.83
2022-11-10T03:35:39.759Z,19.40
2022-11-10T03:39:43.046Z,19.93
2022-11-10T03:43:47.858Z,17.20
2022-11-10T03:47:51.784Z,16.50
2022-11-10T03:51:55.077Z,17.10
2022-11-10T03:56:02.272Z,16.30
2022-11-10T04:00:09.610Z,18.77
2022-11-10T04:04:34.836Z,14.90
2022-11-10T04:08:55.283Z,21.77
2022-11-10T04:13:24.472Z,18.93
2022-11-10T04:17:29.362Z,17.23
2022-11-10T04:21:32.672Z,17.03
2022-11-10T04:25:55.940Z,15.20
2022-11-10T04:29:59.224Z,15.83
2022-11-10T04:34:04.558Z,19.93
2022-11-10T04:38:07.830Z,16.93
2022-11-10T04:42:11.107Z,17.60
2022-11-10T04:46:22.762Z,15.40
2022-11-10T04:50:27.440Z,17.83
2022-11-10T04:54:33.685Z,15.50
2022-11-10T04:58:37.067Z,18.10
2022-11-10T05:02:40.329Z,17.70
2022-11-10T05:06:45.077Z,16.70
2022-11-10T05:10:48.693Z,18.40
2022-11-10T05:14:51.975Z,15.60
2022-11-10T05:18:56.140Z,16.07
2022-11-10T05:23:18.146Z,19.60
2022-11-10T05:27:21.876Z,15.17
2022-11-10T05:31:25.661Z,19.70
2022-11-10T05:35:28.943Z,18.73
2022-11-10T05:39:33.594Z,19.70
2022-11-10T05:43:36.936Z,18.63
2022-11-10T05:47:40.594Z,18.60
2022-11-10T05:51:43.929Z,16.53
2022-11-10T05:55:49.219Z,16.50
2022-11-10T05:59:52.947Z,20.20
2022-11-10T06:03:56.311Z,25.23
2022-11-10T06:08:00.057Z,18.73
2022-11-10T06:12:05.817Z,17.97
2022-11-10T06:16:09.686Z,17.20
2022-11-10T06:20:14.224Z,44.60
2022-11-10T06:24:17.620Z,18.13
2022-11-10T06:28:22.415Z,23.70
2022-11-10T06:32:26.043Z,19.50
2022-11-10T06:36:29.416Z,26.97
2022-11-10T06:40:33.552Z,22.27
2022-11-10T06:44:38.285Z,29.37
2022-11-10T06:48:41.589Z,22.03
2022-11-10T06:52:44.870Z,25.30
2022-11-10T06:56:48.688Z,25.20
2022-11-10T07:00:53.595Z,23.83
2022-11-10T07:04:56.937Z,27.87
2022-11-10T07:09:00.240Z,20.07
2022-11-10T07:13:05.153Z,18.00
2022-11-10T07:17:10.063Z,20.97
2022-11-10T07:21:13.390Z,21.27
2022-11-10T07:25:24.712Z,25.13
2022-11-10T07:29:30.080Z,21.53
2022-11-10T07:33:34.814Z,24.00
2022-11-10T07:37:38.442Z,17.57
2022-11-10T07:41:41.835Z,16.67
2022-11-10T07:45:45.201Z,15.10
2022-11-10T07:49:49.962Z,20.63
2022-11-10T07:53:53.333Z,17.40
2022-11-10T07:58:01.887Z,20.23
2022-11-10T08:02:08.203Z,19.90
2022-11-10T08:06:13.072Z,18.87
2022-11-10T08:10:16.740Z,21.30
2022-11-10T08:14:20.063Z,16.90
2022-11-10T08:18:25.671Z,15.40
2022-11-10T08:22:32.348Z,19.87
2022-11-10T08:26:35.873Z,15.83
2022-11-10T08:30:41.815Z,19.03
2022-11-10T08:34:45.171Z,16.67
2022-11-10T08:38:50.131Z,19.10
2022-11-10T08:43:00.398Z,20.57
2022-11-10T08:47:03.761Z,19.97
2022-11-10T08:51:08.454Z,14.63
2022-11-10T08:55:13.216Z,16.83
2022-11-10T08:59:16.610Z,21.03
2022-11-10T09:03:22.352Z,18.40
2022-11-10T09:07:26.091Z,19.60
2022-11-10T09:11:31.763Z,19.93
2022-11-10T09:15:36.969Z,22.07
2022-11-10T09:19:40.409Z,19.07
2022-11-10T09:23:43.772Z,19.33
2022-11-10T09:27:48.528Z,22.17
2022-11-10T09:31:51.985Z,29.70
2022-11-10T09:35:59.756Z,29.47
2022-11-10T09:40:11.761Z,25.70
2022-11-10T09:44:24.415Z,27.60
2022-11-10T09:48:30.774Z,27.80
2022-11-10T09:52:37.847Z,16.57
2022-11-10T09:56:42.066Z,32.03
2022-11-10T10:00:52.972Z,32.60
2022-11-10T10:05:23.731Z,36.50
2022-11-10T10:09:32.909Z,26.47
2022-11-10T10:14:01.382Z,23.43
2022-11-10T10:18:20.644Z,31.03
2022-11-10T10:22:47.376Z,24.00
2022-11-10T10:26:53.518Z,22.20
2022-11-10T10:31:02.727Z,23.03
2022-11-10T10:35:16.333Z,22.00
2022-11-10T10:39:27.348Z,23.13
2022-11-10T10:43:30.700Z,20.87
2022-11-10T10:47:38.258Z,20.83
2022-11-10T10:51:43.315Z,13.97
2022-11-10T10:55:49.123Z,26.50
2022-11-10T10:59:52.827Z,34.83
2022-11-10T11:03:56.154Z,37.53
2022-11-10T11:08:02.667Z,33.47
2022-11-10T11:12:08.315Z,31.70
2022-11-10T11:16:12.841Z,28.40
2022-11-10T11:20:16.755Z,32.03
2022-11-10T11:24:31.598Z,39.33
2022-11-10T11:28:42.509Z,35.67
2022-11-10T11:33:17.425Z,30.00
2022-11-10T11:37:27.981Z,26.67
2022-11-10T11:47:06.236Z,27.20
2022-11-10T11:51:17.977Z,23.00
2022-11-10T11:55:33.181Z,25.10
2022-11-10T11:59:53.047Z,24.03
2022-11-10T12:04:34.601Z,27.57
2022-11-10T12:08:45.362Z,24.33
2022-11-10T12:13:10.816Z,23.17
2022-11-10T12:17:19.798Z,19.50
2022-11-10T12:21:32.340Z,20.00
2022-11-10T12:25:48.877Z,22.50
2022-11-10T12:29:57.755Z,20.27
2022-11-10T12:34:07.396Z,26.27
2022-11-10T12:38:18.352Z,21.70
2022-11-10T12:42:25.419Z,20.27
2022-11-10T12:46:29.192Z,19.57
2022-11-10T12:50:54.773Z,13.97
2022-11-10T12:54:58.126Z,13.93
2022-11-10T12:59:34.325Z,18.73
2022-11-10T13:03:39.669Z,17.20
2022-11-10T13:07:44.323Z,20.80
2022-11-10T13:12:06.573Z,18.03
2022-11-10T13:16:12.676Z,32.47
2022-11-10T13:20:46.966Z,31.60
2022-11-10T13:24:50.338Z,26.03
2022-11-10T13:29:04.256Z,24.13
2022-11-10T13:33:41.045Z,21.60
2022-11-10T13:37:53.090Z,25.97
2022-11-10T13:42:01.341Z,31.87
2022-11-10T13:46:06.641Z,53.80
2022-11-10T13:50:25.158Z,29.57
2022-11-10T13:54:59.840Z,30.50
2022-11-10T13:59:17.888Z,29.93
2022-11-10T14:03:57.526Z,27.57
2022-11-10T14:08:12.007Z,32.50
2022-11-10T14:12:22.702Z,28.83
2022-11-10T14:16:27.911Z,34.53
2022-11-10T14:20:40.542Z,30.13
2022-11-10T14:24:57.757Z,31.97
2022-11-10T14:29:38.606Z,32.43
2022-11-10T14:33:41.981Z,30.73
2022-11-10T14:37:45.449Z,38.17
2022-11-10T14:41:51.388Z,28.23
2022-11-10T14:45:54.913Z,33.83
2022-11-10T14:50:17.588Z,31.67
2022-11-10T14:54:25.901Z,28.33
2022-11-10T14:58:36.005Z,26.70
2022-11-10T15:02:39.833Z,27.13
2022-11-10T15:06:46.952Z,21.30
2022-11-10T15:10:53.619Z,23.20
2022-11-10T15:15:04.111Z,20.70
2022-11-10T15:19:25.358Z,19.40
2022-11-10T15:23:34.008Z,21.17
2022-11-10T15:27:37.757Z,18.50
2022-11-10T15:31:45.605Z,22.47
2022-11-10T15:35:49.117Z,23.40
2022-11-10T15:39:52.762Z,21.40
2022-11-10T15:44:15.098Z,22.80
2022-11-10T15:48:20.295Z,22.30
2022-11-10T15:52:24.743Z,28.53
2022-11-10T15:56:28.347Z,20.07
2022-11-10T16:00:31.856Z,24.80
2022-11-10T16:04:40.171Z,24.47
2022-11-10T16:08:43.869Z,22.67
2022-11-10T16:12:59.506Z,27.30
2022-11-10T16:17:03.789Z,37.13
2022-11-10T16:21:12.827Z,31.07
2022-11-10T16:25:22.618Z,33.43
2022-11-10T16:29:29.154Z,31.10
2022-11-10T16:33:32.578Z,32.90
2022-11-10T16:37:37.924Z,32.50
2022-11-10T16:41:42.949Z,29.93
2022-11-10T16:45:47.882Z,25.40
2022-11-10T16:49:51.557Z,23.23
2022-11-10T16:53:57.315Z,24.90
2022-11-10T16:58:01.075Z,23.20
2022-11-10T17:02:04.678Z,24.13
2022-11-10T17:06:13.666Z,25.60
2022-11-10T17:10:20.611Z,40.00
2022-11-10T17:14:23.999Z,25.43
2022-11-10T17:18:27.735Z,20.73
2022-11-10T17:22:36.885Z,25.20
2022-11-10T17:26:42.524Z,20.63
2022-11-10T17:30:49.353Z,23.37
2022-11-10T17:34:53.149Z,35.07
2022-11-10T17:38:58.681Z,30.83
2022-11-10T17:43:04.789Z,23.80
2022-11-10T17:47:08.240Z,24.90
2022-11-10T17:51:15.907Z,22.03
2022-11-10T17:55:23.653Z,23.50
2022-11-10T18:00:18.624Z,19.20
2022-11-10T18:04:27.164Z,33.30
2022-11-10T18:08:30.655Z,24.57
2022-11-10T18:12:38.398Z,19.53
2022-11-10T18:22:16.258Z,21.93
2022-11-10T18:26:20.236Z,21.80
2022-11-10T18:30:24.308Z,37.63
2022-11-10T18:34:28.711Z,32.20
2022-11-10T18:38:37.802Z,18.90
2022-11-10T18:42:49.708Z,70.13
2022-11-10T18:46:55.511Z,23.70
2022-11-10T18:51:07.365Z,20.70
2022-11-10T18:55:14.726Z,18.73
2022-11-10T18:59:21.754Z,23.70
2022-11-10T19:03:26.527Z,17.33
2022-11-10T19:07:32.366Z,16.80
2022-11-10T19:11:38.492Z,20.00
2022-11-10T19:15:45.139Z,23.10
2022-11-10T19:19:56.184Z,26.33
2022-11-10T19:24:01.732Z,20.10
2022-11-10T19:28:13.137Z,29.40
2022-11-10T19:32:23.609Z,24.07
2022-11-10T19:36:31.326Z,28.77
2022-11-10T19:40:40.081Z,54.77
2022-11-10T19:44:58.485Z,28.73
2022-11-10T19:49:11.867Z,24.23
2022-11-10T19:53:19.620Z,21.50
2022-11-10T19:57:26.514Z,16.97
2022-11-10T20:01:38.160Z,30.43
2022-11-10T20:05:47.169Z,25.93
2022-11-10T20:10:00.720Z,19.23
2022-11-10T20:14:09.071Z,14.83
2022-11-10T20:18:16.061Z,14.87
2022-11-10T20:22:20.311Z,16.87
2022-11-10T20:26:28.119Z,19.70
2022-11-10T20:30:33.715Z,13.90
2022-11-10T20:34:39.788Z,15.83
2022-11-10T20:38:44.963Z,16.70
2022-11-10T20:42:50.470Z,14.97
2022-11-10T20:46:56.428Z,16.50
2022-11-10T20:51:03.438Z,15.40
2022-11-10T20:55:09.434Z,12.07
2022-11-10T20:59:13.580Z,14.23
2022-11-10T21:03:17.424Z,12.20
2022-11-10T21:07:22.621Z,12.07
2022-11-10T21:11:45.769Z,15.63
2022-11-10T21:15:51.916Z,12.20
2022-11-10T21:19:56.275Z,12.70
2022-11-10T21:24:00.966Z,13.77
2022-11-10T21:28:04.913Z,13.67
2022-11-10T21:32:08.662Z,15.80
2022-11-10T21:36:13.012Z,13.20
2022-11-10T21:40:23.675Z,15.70
2022-11-10T21:44:26.971Z,13.77
2022-11-10T21:48:30.753Z,13.50
2022-11-10T21:52:34.018Z,12.83
2022-11-10T21:56:40.741Z,11.97
2022-11-10T22:00:44.040Z,13.67
2022-11-10T22:04:49.004Z,14.90
2022-11-10T22:08:53.408Z,11.43
2022-11-10T22:13:15.412Z,12.60
2022-11-10T22:17:36.245Z,14.70
2022-11-10T22:21:39.701Z,13.30
2022-11-10T22:25:43.103Z,8.23
2022-11-10T22:29:50.110Z,9.47
2022-11-10T22:33:53.426Z,9.90
2022-11-10T22:37:57.809Z,11.57
2022-11-10T22:42:18.515Z,12.50
2022-11-10T22:46:23.218Z,12.43
2022-11-10T22:50:28.641Z,13.53
2022-11-10T22:54:32.154Z,10.37
2022-11-10T22:58:36.708Z,11.37
2022-11-10T23:02:41.493Z,11.00
2022-11-10T23:06:45.117Z,7.90
2022-11-10T23:10:49.186Z,8.83
2022-11-10T23:14:52.639Z,9.53
2022-11-10T23:18:58.438Z,10.37
2022-11-10T23:23:01.775Z,9.50
2022-11-10T23:27:05.336Z,9.30
2022-11-10T23:31:11.132Z,9.77
2022-11-10T23:35:16.191Z,10.43
2022-11-10T23:39:19.549Z,9.53
2022-11-10T23:43:23.798Z,7.53
2022-11-10T23:47:27.421Z,7.83
2022-11-10T23:51:33.732Z,9.37
2022-11-10T23:55:37.330Z,8.07
2022-11-10T23:59:40.820Z,10.40
